Time;durP1;ratioP1;P1;durP2;ratioP2;P2;SDS_P1;SDS_P2;PMS_P1;PMS_P2;Temp;Humidity;BMP_temperature;BMP_pressure;BME280_temperature;BME280_humidity;BME280_pressure;Samples;Min_cycle;Max_cycle;Signal;HPM_P1;HPM_P2
2021/10/22 00:00:56;;;;;;;13.23;4.50;;;8.60;99.90;;;;;;5013325;28;20182;-71
2021/10/22 00:03:22;;;;;;;13.47;4.97;;;8.70;99.90;;;;;;5011619;28;20195;-71
2021/10/22 00:05:49;;;;;;;8.23;4.50;;;8.70;99.90;;;;;;5011697;28;20183;-71
2021/10/22 00:08:14;;;;;;;9.80;5.03;;;8.60;99.90;;;;;;5023420;27;20177;-72
2021/10/22 00:10:41;;;;;;;10.20;4.83;;;8.70;99.90;;;;;;5031653;28;20478;-71
2021/10/22 00:13:07;;;;;;;9.97;5.30;;;8.70;99.90;;;;;;5031571;28;20166;-71
2021/10/22 00:15:33;;;;;;;11.90;5.83;;;8.60;99.90;;;;;;5031175;28;20438;-71
2021/10/22 00:17:58;;;;;;;15.10;4.63;;;8.60;99.90;;;;;;5034198;28;20437;-71
2021/10/22 00:20:24;;;;;;;8.80;4.30;;;8.60;99.90;;;;;;5011833;28;20607;-71
2021/10/22 00:22:49;;;;;;;14.83;5.07;;;8.60;99.90;;;;;;5011242;28;20730;-72
2021/10/22 00:25:15;;;;;;;10.00;4.13;;;8.70;99.90;;;;;;5011047;27;20212;-71
2021/10/22 00:27:41;;;;;;;11.23;4.33;;;8.60;99.90;;;;;;5011629;28;20199;-71
2021/10/22 00:30:07;;;;;;;8.70;4.17;;;8.60;99.90;;;;;;5028872;28;20425;-71
2021/10/22 00:32:33;;;;;;;15.97;4.37;;;8.60;99.90;;;;;;5031258;28;20185;-72
2021/10/22 00:34:59;;;;;;;11.83;4.60;;;8.50;99.90;;;;;;5031369;28;20777;-71
2021/10/22 00:37:25;;;;;;;8.70;4.40;;;8.50;99.90;;;;;;5031349;27;20195;-71
2021/10/22 00:39:50;;;;;;;9.10;4.40;;;8.60;99.90;;;;;;5024713;28;20654;-71
2021/10/22 00:42:17;;;;;;;6.30;3.87;;;8.60;99.90;;;;;;5020526;28;20237;-72
2021/10/22 00:44:43;;;;;;;7.40;3.60;;;8.50;99.90;;;;;;5011471;28;20200;-71
2021/10/22 00:47:09;;;;;;;8.37;3.73;;;8.50;99.90;;;;;;5010965;27;21070;-72
2021/10/22 00:49:35;;;;;;;11.50;4.33;;;8.50;99.90;;;;;;5011268;28;20430;-72
2021/10/22 00:52:01;;;;;;;6.83;3.53;;;8.60;99.90;;;;;;5012503;28;20197;-72
2021/10/22 00:54:27;;;;;;;10.67;3.70;;;8.60;99.90;;;;;;5011173;28;20164;-72
2021/10/22 00:56:52;;;;;;;12.33;3.57;;;8.60;99.90;;;;;;5011378;28;20953;-71
2021/10/22 00:59:18;;;;;;;13.00;4.10;;;8.50;99.90;;;;;;5011413;28;20982;-71
2021/10/22 01:01:44;;;;;;;7.87;3.63;;;8.50;99.90;;;;;;5011182;28;20625;-72
2021/10/22 01:04:09;;;;;;;16.70;3.17;;;8.60;99.90;;;;;;5011957;28;20243;-71
2021/10/22 01:06:39;;;;;;;8.20;3.27;;;8.50;99.90;;;;;;5011000;28;20668;-71
2021/10/22 01:09:09;;;;;;;8.43;3.57;;;8.50;99.90;;;;;;5011026;27;20691;-72
2021/10/22 01:11:35;;;;;;;10.10;3.30;;;8.40;99.90;;;;;;5011126;28;20409;-72
2021/10/22 01:14:03;;;;;;;12.03;4.10;;;8.40;99.90;;;;;;5010499;28;20435;-72
2021/10/22 01:16:29;;;;;;;9.73;3.93;;;8.50;99.90;;;;;;5011086;28;20437;-71
2021/10/22 01:18:54;;;;;;;9.40;3.30;;;8.50;99.90;;;;;;5010764;28;20416;-71
2021/10/22 01:21:20;;;;;;;6.33;3.07;;;8.50;99.90;;;;;;5010680;27;20191;-71
2021/10/22 01:23:45;;;;;;;5.43;2.80;;;8.40;99.90;;;;;;5010588;28;20297;-72
2021/10/22 01:26:11;;;;;;;8.00;3.20;;;8.40;99.90;;;;;;5029109;28;20190;-72
2021/10/22 01:28:37;;;;;;;14.63;3.70;;;8.50;99.90;;;;;;5030542;28;20216;-71
2021/10/22 01:31:02;;;;;;;10.20;3.67;;;8.50;99.90;;;;;;5030445;28;20415;-72
2021/10/22 01:33:29;;;;;;;9.03;3.47;;;8.50;99.90;;;;;;5030160;27;20208;-71
2021/10/22 01:35:55;;;;;;;7.33;2.87;;;8.50;99.90;;;;;;5031488;28;20205;-71
2021/10/22 01:38:23;;;;;;;5.23;2.73;;;8.50;99.90;;;;;;5021857;28;20797;-72
2021/10/22 01:40:53;;;;;;;7.43;3.23;;;8.50;99.90;;;;;;5033802;28;20413;-71
2021/10/22 01:43:20;;;;;;;7.53;2.97;;;8.50;99.90;;;;;;5033594;27;20454;-71
2021/10/22 01:45:46;;;;;;;8.10;3.30;;;8.50;99.90;;;;;;5031824;28;20867;-72
2021/10/22 01:48:12;;;;;;;12.70;4.30;;;8.50;99.90;;;;;;5033700;28;20412;-71
2021/10/22 01:50:38;;;;;;;10.13;3.53;;;8.50;99.90;;;;;;5033585;28;20430;-72
2021/10/22 01:53:05;;;;;;;11.10;3.27;;;8.40;99.90;;;;;;5033650;28;20171;-71
2021/10/22 01:55:30;;;;;;;7.83;3.17;;;8.40;99.90;;;;;;5032069;28;20934;-72
2021/10/22 01:57:56;;;;;;;7.80;3.47;;;8.40;99.90;;;;;;5016152;28;20425;-71
2021/10/22 02:00:22;;;;;;;8.53;3.60;;;8.40;99.90;;;;;;5012890;28;20236;-71
2021/10/22 02:02:47;;;;;;;5.80;2.93;;;8.40;99.90;;;;;;5023195;28;20225;-71
2021/10/22 02:05:13;;;;;;;7.23;3.10;;;8.40;99.90;;;;;;5030566;28;20199;-72
2021/10/22 02:07:39;;;;;;;8.77;3.03;;;8.20;99.90;;;;;;5022902;28;20184;-71
2021/10/22 02:10:05;;;;;;;11.83;3.30;;;8.20;99.90;;;;;;5013615;28;20346;-71
2021/10/22 02:12:31;;;;;;;7.30;3.00;;;8.20;99.90;;;;;;5013657;28;20423;-71
2021/10/22 02:14:56;;;;;;;4.50;2.30;;;8.20;99.90;;;;;;5013302;28;20424;-72
2021/10/22 02:17:22;;;;;;;9.20;2.90;;;8.20;99.90;;;;;;5014606;28;20224;-71
2021/10/22 02:19:47;;;;;;;7.63;3.03;;;8.20;99.90;;;;;;5013610;28;20173;-71
2021/10/22 02:22:14;;;;;;;10.43;2.67;;;8.20;99.90;;;;;;5013140;28;20212;-71
2021/10/22 02:24:39;;;;;;;7.83;2.87;;;8.20;99.90;;;;;;5012977;28;20673;-71
2021/10/22 02:27:05;;;;;;;8.53;3.10;;;8.20;99.90;;;;;;5013171;27;20450;-71
2021/10/22 02:29:30;;;;;;;4.40;3.00;;;8.10;99.90;;;;;;5014369;28;20182;-72
2021/10/22 02:31:56;;;;;;;7.80;2.70;;;8.10;99.90;;;;;;5013209;28;20180;-71
2021/10/22 02:34:22;;;;;;;4.80;2.70;;;8.10;99.90;;;;;;5012936;28;20176;-72
2021/10/22 02:36:49;;;;;;;8.10;3.00;;;8.00;99.90;;;;;;5013375;28;20260;-71
2021/10/22 02:39:15;;;;;;;6.57;2.63;;;8.00;99.90;;;;;;5020831;28;20468;-71
2021/10/22 02:41:41;;;;;;;8.00;3.53;;;8.00;99.90;;;;;;5030038;28;20436;-71
2021/10/22 02:44:07;;;;;;;11.70;3.20;;;8.00;99.90;;;;;;5012847;28;20205;-71
2021/10/22 02:46:32;;;;;;;5.57;2.77;;;7.90;99.90;;;;;;5012411;27;20457;-71
2021/10/22 02:48:58;;;;;;;7.37;3.13;;;7.80;99.90;;;;;;5012885;28;20197;-71
2021/10/22 02:51:23;;;;;;;7.30;3.20;;;7.80;99.90;;;;;;5013207;28;20249;-71
2021/10/22 02:53:49;;;;;;;9.27;3.27;;;7.80;99.90;;;;;;5013063;28;20661;-71
2021/10/22 02:56:14;;;;;;;11.70;4.70;;;7.80;99.90;;;;;;5013687;28;20207;-71
2021/10/22 02:58:41;;;;;;;9.60;3.50;;;7.80;99.90;;;;;;5016330;28;20205;-71
2021/10/22 03:01:07;;;;;;;8.13;3.00;;;7.80;99.90;;;;;;5015468;28;20524;-71
2021/10/22 03:03:33;;;;;;;11.53;3.80;;;7.70;99.90;;;;;;5013632;27;20229;-71
2021/10/22 03:05:58;;;;;;;6.33;3.37;;;7.70;99.90;;;;;;5012524;28;20281;-71
2021/10/22 03:08:24;;;;;;;9.13;3.90;;;7.70;99.90;;;;;;5012431;28;20624;-71
2021/10/22 03:10:49;;;;;;;8.03;3.50;;;7.70;99.90;;;;;;5012555;28;20255;-71
2021/10/22 03:13:15;;;;;;;10.20;3.90;;;7.70;99.90;;;;;;5013462;28;20187;-70
2021/10/22 03:15:40;;;;;;;10.30;3.30;;;7.70;99.90;;;;;;5012481;28;20195;-71
2021/10/22 03:18:06;;;;;;;9.77;3.30;;;7.70;99.90;;;;;;5012632;28;20200;-71
2021/10/22 03:20:32;;;;;;;7.53;3.20;;;7.70;99.90;;;;;;5012438;27;20536;-71
2021/10/22 03:22:58;;;;;;;11.30;3.60;;;7.70;99.90;;;;;;5012627;28;20522;-71
2021/10/22 03:25:23;;;;;;;6.90;3.33;;;7.70;99.90;;;;;;5013749;28;20466;-71
2021/10/22 03:27:49;;;;;;;9.03;3.43;;;7.70;99.90;;;;;;5013497;28;20406;-71
2021/10/22 03:30:15;;;;;;;7.53;2.60;;;7.70;99.90;;;;;;5015378;28;20206;-71
2021/10/22 03:32:40;;;;;;;10.40;3.50;;;7.70;99.90;;;;;;5020142;27;20200;-71
2021/10/22 03:35:06;;;;;;;7.47;2.83;;;7.70;99.90;;;;;;5013578;28;20949;-71
2021/10/22 03:37:33;;;;;;;6.70;3.37;;;7.70;99.90;;;;;;5012128;28;20620;-71
2021/10/22 03:39:58;;;;;;;8.93;4.03;;;7.70;99.90;;;;;;5012033;28;20447;-71
2021/10/22 03:42:24;;;;;;;6.03;3.30;;;7.60;99.90;;;;;;5012371;28;20998;-71
2021/10/22 03:44:49;;;;;;;11.03;3.47;;;7.60;99.90;;;;;;5012171;28;20178;-71
2021/10/22 03:47:15;;;;;;;4.90;2.83;;;7.60;99.90;;;;;;5013466;28;20191;-71
2021/10/22 03:49:41;;;;;;;7.00;3.40;;;7.60;99.90;;;;;;5012305;27;20241;-71
2021/10/22 03:52:06;;;;;;;5.47;3.10;;;7.50;99.90;;;;;;5012640;28;20593;-71
2021/10/22 03:54:32;;;;;;;7.40;3.30;;;7.60;99.90;;;;;;5015599;28;20773;-71
2021/10/22 03:56:57;;;;;;;8.33;3.00;;;7.50;99.90;;;;;;5022206;28;20272;-71
2021/10/22 03:59:23;;;;;;;6.07;2.50;;;7.50;99.90;;;;;;5011733;28;20186;-71
2021/10/22 04:01:50;;;;;;;13.33;4.80;;;7.50;99.90;;;;;;5011954;28;20176;-71
2021/10/22 04:04:16;;;;;;;8.90;3.07;;;7.60;99.90;;;;;;5011557;27;20303;-72
2021/10/22 04:06:41;;;;;;;8.07;2.90;;;7.60;99.90;;;;;;5014967;28;20521;-71
2021/10/22 04:09:08;;;;;;;7.87;3.63;;;7.60;99.90;;;;;;5031588;28;20548;-71
2021/10/22 04:11:34;;;;;;;10.40;3.47;;;7.50;99.90;;;;;;5031727;28;20167;-72
2021/10/22 04:14:01;;;;;;;7.60;3.17;;;7.50;99.90;;;;;;5031467;28;20417;-71
2021/10/22 04:16:28;;;;;;;10.87;3.23;;;7.50;99.90;;;;;;5031114;28;20451;-71
2021/10/22 04:18:53;;;;;;;6.17;2.73;;;7.40;99.90;;;;;;5015858;27;20461;-71
2021/10/22 04:21:19;;;;;;;7.37;3.17;;;7.40;99.90;;;;;;5011757;28;20404;-71
2021/10/22 04:23:45;;;;;;;4.43;2.90;;;7.40;99.90;;;;;;5011282;28;20214;-71
2021/10/22 04:26:11;;;;;;;6.80;3.03;;;7.40;99.90;;;;;;5011245;28;20254;-71
2021/10/22 04:28:37;;;;;;;7.73;3.70;;;7.40;99.90;;;;;;5012752;28;20422;-71
2021/10/22 04:31:03;;;;;;;6.40;2.97;;;7.40;99.90;;;;;;5011536;28;20485;-71
2021/10/22 04:33:28;;;;;;;11.93;3.20;;;7.40;99.90;;;;;;5011609;27;20222;-71
2021/10/22 04:35:54;;;;;;;8.03;2.70;;;7.40;99.90;;;;;;5012964;28;20236;-71
2021/10/22 04:40:52;;;;;;;7.40;3.40;;;7.40;99.90;;;;;;5013547;28;20660;-71
2021/10/22 04:43:19;;;;;;;8.10;2.83;;;7.40;99.90;;;;;;5024356;28;20481;-70
2021/10/22 04:45:49;;;;;;;5.43;2.60;;;7.30;99.90;;;;;;5050653;28;20529;-70
2021/10/22 04:48:14;;;;;;;7.03;2.80;;;7.30;99.90;;;;;;5051312;27;20413;-70
2021/10/22 04:50:49;;;;;;;8.93;3.43;;;7.30;99.90;;;;;;5050835;28;20882;-70
2021/10/22 04:53:15;;;;;;;8.57;3.63;;;7.30;99.90;;;;;;5015823;28;20187;-72
2021/10/22 04:55:41;;;;;;;10.20;3.73;;;7.30;99.90;;;;;;5012189;28;20514;-71
2021/10/22 04:58:07;;;;;;;5.60;2.93;;;7.30;99.90;;;;;;5011742;28;20204;-70
2021/10/22 05:00:34;;;;;;;8.60;3.20;;;7.30;99.90;;;;;;5011359;27;20420;-71
2021/10/22 05:03:00;;;;;;;9.00;3.10;;;7.30;99.90;;;;;;5020511;28;20536;-70
2021/10/22 05:05:25;;;;;;;6.60;3.50;;;7.30;99.90;;;;;;5031174;28;20476;-70
2021/10/22 05:07:51;;;;;;;8.33;3.60;;;7.30;99.90;;;;;;5032015;28;20244;-70
2021/10/22 05:10:16;;;;;;;8.93;3.47;;;7.30;99.90;;;;;;5030392;27;20175;-70
2021/10/22 05:12:42;;;;;;;9.33;3.13;;;7.30;99.90;;;;;;5030636;28;20178;-70
2021/10/22 05:15:09;;;;;;;9.83;3.10;;;7.40;99.90;;;;;;5022494;28;20173;-71
2021/10/22 05:17:35;;;;;;;8.73;3.40;;;7.40;99.90;;;;;;5023798;28;20201;-70
2021/10/22 05:20:02;;;;;;;7.23;2.97;;;7.30;99.90;;;;;;5016096;28;20410;-70
2021/10/22 05:22:28;;;;;;;9.17;3.30;;;7.30;99.90;;;;;;5010567;27;20857;-70
2021/10/22 05:24:54;;;;;;;12.80;3.90;;;7.30;99.90;;;;;;5011545;28;20426;-70
2021/10/22 05:27:20;;;;;;;9.33;3.53;;;7.40;99.90;;;;;;5010366;28;20415;-71
2021/10/22 05:29:45;;;;;;;6.40;3.03;;;7.50;99.90;;;;;;5010841;28;20525;-70
2021/10/22 05:32:11;;;;;;;11.00;3.67;;;7.50;99.90;;;;;;5009281;28;20171;-70
2021/10/22 05:34:36;;;;;;;5.50;3.30;;;7.60;99.90;;;;;;5011442;28;20219;-70
2021/10/22 05:37:02;;;;;;;10.27;3.17;;;7.60;99.90;;;;;;5010637;28;20698;-70
2021/10/22 05:39:29;;;;;;;6.07;2.83;;;7.50;99.90;;;;;;5010329;28;20663;-70
2021/10/22 05:41:54;;;;;;;7.27;2.97;;;7.60;99.90;;;;;;5010250;27;20431;-70
2021/10/22 05:44:20;;;;;;;10.07;3.50;;;7.60;99.90;;;;;;5010096;28;20457;-70
2021/10/22 05:46:47;;;;;;;4.40;3.13;;;7.50;99.90;;;;;;5011419;28;20528;-70
2021/10/22 05:49:13;;;;;;;6.80;2.90;;;7.60;99.90;;;;;;5010311;28;20652;-71
2021/10/22 05:51:38;;;;;;;7.70;2.93;;;7.70;99.90;;;;;;5010257;28;20422;-70
2021/10/22 05:54:04;;;;;;;6.37;3.20;;;7.80;99.90;;;;;;5013159;28;20198;-70
2021/10/22 05:56:30;;;;;;;6.23;3.40;;;7.80;99.90;;;;;;5013239;27;20224;-70
2021/10/22 05:58:55;;;;;;;8.13;3.93;;;7.80;99.90;;;;;;5010653;28;20176;-70
2021/10/22 06:01:22;;;;;;;6.10;3.40;;;7.80;99.90;;;;;;5010702;28;20638;-70
2021/10/22 06:03:48;;;;;;;9.27;3.60;;;7.70;99.90;;;;;;5010142;28;20664;-70
2021/10/22 06:06:14;;;;;;;8.20;3.90;;;7.70;99.90;;;;;;5011415;28;20450;-71
2021/10/22 06:08:40;;;;;;;6.67;2.73;;;7.60;99.90;;;;;;5027886;27;20532;-71
2021/10/22 06:11:10;;;;;;;9.63;3.17;;;7.60;99.90;;;;;;5073314;28;20433;-71
2021/10/22 06:13:40;;;;;;;8.00;3.63;;;7.50;99.90;;;;;;5099787;27;20226;-71
2021/10/22 06:16:06;;;;;;;11.23;5.63;;;7.50;99.90;;;;;;5070364;28;20853;-70
2021/10/22 06:18:33;;;;;;;7.57;3.57;;;7.60;99.90;;;;;;5038483;28;20502;-71
2021/10/22 06:21:09;;;;;;;8.90;3.80;;;7.50;99.90;;;;;;5100432;27;20437;-70
2021/10/22 06:23:53;;;;;;;6.37;3.00;;;7.50;99.90;;;;;;5104485;27;20898;-70
2021/10/22 06:26:20;;;;;;;9.00;3.50;;;7.30;99.90;;;;;;5050337;28;21051;-70
2021/10/22 06:28:47;;;;;;;7.53;2.97;;;7.30;99.90;;;;;;5023562;27;20999;-70
2021/10/22 06:31:13;;;;;;;5.77;4.00;;;7.30;99.90;;;;;;5010405;28;20468;-71
2021/10/22 06:33:39;;;;;;;10.60;3.67;;;7.20;99.90;;;;;;5011120;27;20902;-70
2021/10/22 06:36:06;;;;;;;9.63;3.30;;;7.30;99.90;;;;;;5011807;28;20929;-70
2021/10/22 06:38:32;;;;;;;8.83;3.30;;;7.30;99.90;;;;;;5019446;28;20449;-71
2021/10/22 06:40:58;;;;;;;6.50;3.63;;;7.30;99.90;;;;;;5020482;28;20585;-71
2021/10/22 06:43:24;;;;;;;6.17;3.50;;;7.20;99.90;;;;;;5020231;28;20920;-71
2021/10/22 06:45:50;;;;;;;8.50;3.43;;;7.30;99.90;;;;;;5023454;28;20487;-71
2021/10/22 06:48:16;;;;;;;6.83;3.10;;;7.20;99.90;;;;;;5013242;28;20168;-72
2021/10/22 06:50:44;;;;;;;7.40;3.10;;;7.30;99.90;;;;;;5012906;27;20433;-71
2021/10/22 06:53:10;;;;;;;6.30;2.93;;;7.30;99.90;;;;;;5014441;28;20733;-70
2021/10/22 06:55:36;;;;;;;4.93;3.40;;;7.30;99.90;;;;;;5011574;28;20969;-70
2021/10/22 06:58:03;;;;;;;9.40;3.77;;;7.40;99.90;;;;;;5014070;28;20402;-71
2021/10/22 07:00:29;;;;;;;5.00;3.00;;;7.40;99.90;;;;;;5013491;28;20174;-71
2021/10/22 07:02:55;;;;;;;8.80;4.30;;;7.40;99.90;;;;;;5015855;28;20459;-71
2021/10/22 07:07:51;;;;;;;9.65;4.10;;;7.40;99.90;;;;;;5017877;28;20983;-71
2021/10/22 07:10:17;;;;;;;9.63;3.50;;;7.50;99.90;;;;;;5022217;28;20280;-72
2021/10/22 07:12:43;;;;;;;5.83;3.23;;;7.60;99.90;;;;;;5013028;28;20506;-70
2021/10/22 07:15:09;;;;;;;10.00;3.70;;;7.60;99.90;;;;;;5032901;28;20892;-71
2021/10/22 07:17:34;;;;;;;8.30;3.40;;;7.70;99.90;;;;;;5053012;28;20422;-71
2021/10/22 07:20:00;;;;;;;5.97;2.80;;;7.80;99.90;;;;;;5052535;28;20251;-70
2021/10/22 07:22:33;;;;;;;9.27;3.20;;;7.80;99.90;;;;;;5052166;27;20230;-71
2021/10/22 07:24:59;;;;;;;6.23;2.80;;;7.80;99.90;;;;;;5040450;28;20198;-70
2021/10/22 07:27:25;;;;;;;5.33;3.70;;;7.90;99.90;;;;;;5032179;28;20491;-70
2021/10/22 07:29:51;;;;;;;10.33;3.23;;;7.90;99.90;;;;;;5032330;28;20407;-71
2021/10/22 07:32:17;;;;;;;8.93;3.57;;;7.90;99.90;;;;;;5031250;28;20199;-70
2021/10/22 07:34:42;;;;;;;6.57;2.80;;;8.00;99.90;;;;;;5030553;28;20967;-70
2021/10/22 07:37:08;;;;;;;5.27;3.13;;;8.00;99.90;;;;;;5032265;28;20447;-69
2021/10/22 07:39:34;;;;;;;9.07;3.10;;;8.20;99.90;;;;;;5031065;28;20693;-71
2021/10/22 07:42:00;;;;;;;14.97;3.03;;;8.20;99.90;;;;;;5030807;28;20227;-72
2021/10/22 07:44:26;;;;;;;8.80;2.93;;;8.30;99.90;;;;;;5031321;28;20551;-71
2021/10/22 07:46:52;;;;;;;6.50;2.50;;;8.30;99.90;;;;;;5030310;28;20534;-71
2021/10/22 07:49:17;;;;;;;6.70;4.10;;;8.40;99.90;;;;;;5033204;27;20285;-71
2021/10/22 07:51:43;;;;;;;8.03;2.90;;;8.40;99.90;;;;;;5033201;28;20417;-71
2021/10/22 07:54:09;;;;;;;8.03;3.90;;;8.40;99.90;;;;;;5031865;28;20179;-69
2021/10/22 07:56:35;;;;;;;6.47;3.03;;;8.40;99.90;;;;;;5024924;28;20537;-71
2021/10/22 07:59:03;;;;;;;5.73;2.70;;;8.40;99.90;;;;;;5012009;28;20260;-71
2021/10/22 08:01:29;;;;;;;8.53;3.07;;;8.50;99.90;;;;;;5012563;28;20455;-71
2021/10/22 08:03:54;;;;;;;7.13;3.00;;;8.50;99.90;;;;;;5011576;28;20561;-70
2021/10/22 08:06:20;;;;;;;6.00;3.07;;;8.60;99.90;;;;;;5013239;28;20207;-71
2021/10/22 08:08:46;;;;;;;7.33;2.73;;;8.60;99.90;;;;;;5013295;28;20633;-71
2021/10/22 08:11:15;;;;;;;7.90;2.67;;;8.70;99.90;;;;;;5011824;28;20188;-70
2021/10/22 08:13:42;;;;;;;4.33;2.63;;;8.70;99.90;;;;;;5011595;28;20410;-70
2021/10/22 08:16:08;;;;;;;6.73;2.77;;;8.80;99.90;;;;;;5023969;28;20586;-71
2021/10/22 08:18:34;;;;;;;12.43;2.87;;;8.70;99.90;;;;;;5018903;28;20907;-71
2021/10/22 08:21:04;;;;;;;10.20;3.40;;;8.70;99.90;;;;;;5043919;28;20183;-70
2021/10/22 08:23:29;;;;;;;12.67;3.20;;;8.70;99.90;;;;;;5031538;28;20654;-70
2021/10/22 08:25:55;;;;;;;5.73;2.90;;;8.80;99.90;;;;;;5019341;28;20430;-70
2021/10/22 08:28:21;;;;;;;5.40;2.60;;;8.80;99.90;;;;;;5043794;28;20192;-72
2021/10/22 08:30:55;;;;;;;3.37;2.40;;;8.90;99.90;;;;;;5085450;27;20598;-71
2021/10/22 08:33:22;;;;;;;6.37;2.90;;;8.90;99.90;;;;;;5083003;27;20422;-71
2021/10/22 08:35:48;;;;;;;8.33;2.53;;;9.00;99.90;;;;;;5031315;28;20445;-71
2021/10/22 08:38:13;;;;;;;6.23;3.13;;;9.00;99.90;;;;;;5014182;28;20451;-71
2021/10/22 08:40:39;;;;;;;8.33;2.97;;;9.10;99.90;;;;;;5026931;28;20270;-71
2021/10/22 08:43:05;;;;;;;4.40;2.60;;;9.10;99.90;;;;;;5032305;28;20662;-71
2021/10/22 08:45:32;;;;;;;5.57;3.40;;;9.20;99.90;;;;;;5040334;28;20222;-71
2021/10/22 08:47:59;;;;;;;5.50;2.23;;;9.30;99.90;;;;;;5017455;28;20186;-71
2021/10/22 08:50:24;;;;;;;4.60;2.30;;;9.30;99.90;;;;;;5029619;27;20457;-71
2021/10/22 08:52:51;;;;;;;5.57;2.63;;;9.20;99.90;;;;;;5023623;28;20429;-71
2021/10/22 08:55:18;;;;;;;6.60;2.73;;;9.30;99.90;;;;;;5010636;28;20219;-71
2021/10/22 08:57:46;;;;;;;5.60;2.70;;;9.40;99.90;;;;;;5011100;28;20536;-71
2021/10/22 09:00:20;;;;;;;12.77;2.77;;;9.40;99.90;;;;;;5027925;28;20429;-71
2021/10/22 09:02:48;;;;;;;7.70;3.03;;;9.50;99.90;;;;;;5030327;28;20461;-71
2021/10/22 09:05:15;;;;;;;8.87;2.40;;;9.50;99.90;;;;;;5019616;28;20449;-71
2021/10/22 09:07:43;;;;;;;9.87;3.90;;;9.60;99.90;;;;;;5018742;28;20512;-71
2021/10/22 09:10:14;;;;;;;10.87;2.60;;;9.60;99.90;;;;;;5028539;28;20421;-70
2021/10/22 09:12:46;;;;;;;6.77;2.47;;;9.60;99.90;;;;;;5031360;28;20425;-71
2021/10/22 09:15:14;;;;;;;5.27;3.10;;;9.70;99.90;;;;;;5028142;28;20451;-71
2021/10/22 09:17:42;;;;;;;7.67;2.50;;;9.70;99.90;;;;;;5037680;28;20425;-71
2021/10/22 09:20:12;;;;;;;6.27;2.40;;;9.60;99.90;;;;;;5014660;27;20459;-71
2021/10/22 09:22:38;;;;;;;34.47;4.10;;;9.70;99.90;;;;;;5030686;28;20522;-71
2021/10/22 09:25:08;;;;;;;5.20;2.97;;;9.80;99.90;;;;;;5021165;28;20418;-70
2021/10/22 09:27:44;;;;;;;6.67;2.60;;;9.90;99.90;;;;;;5022210;28;20863;-71
2021/10/22 09:30:30;;;;;;;7.10;2.73;;;9.80;99.90;;;;;;5029942;28;20473;-71
2021/10/22 09:33:11;;;;;;;5.50;2.47;;;9.80;99.90;;;;;;5030406;28;20425;-71
2021/10/22 09:35:43;;;;;;;6.53;2.77;;;9.90;99.90;;;;;;5018903;28;20790;-70
2021/10/22 09:38:13;;;;;;;10.57;3.10;;;9.90;99.90;;;;;;5027195;28;20932;-71
2021/10/22 09:40:41;;;;;;;9.53;3.33;;;10.00;99.90;;;;;;5045612;28;20970;-71
2021/10/22 09:43:15;;;;;;;5.87;2.20;;;10.00;99.90;;;;;;5038211;27;20457;-71
2021/10/22 09:45:40;;;;;;;8.13;4.47;;;10.10;99.90;;;;;;5071650;28;20771;-71
2021/10/22 09:48:29;;;;;;;11.33;2.80;;;10.10;99.90;;;;;;5029785;28;20178;-71
2021/10/22 09:50:56;;;;;;;4.30;2.33;;;10.20;99.90;;;;;;5017203;28;20191;-71
2021/10/22 09:53:29;;;;;;;10.43;3.40;;;10.20;99.90;;;;;;5019571;28;20422;-70
2021/10/22 09:56:02;;;;;;;3.63;2.00;;;10.20;99.90;;;;;;5025953;28;20533;-71
2021/10/22 09:58:28;;;;;;;8.07;2.60;;;10.20;99.90;;;;;;5043448;28;20409;-71
2021/10/22 10:01:12;;;;;;;6.60;2.90;;;10.20;99.90;;;;;;5034046;27;20432;-71
2021/10/22 10:03:42;;;;;;;6.17;2.87;;;10.20;99.90;;;;;;5033451;28;20803;-71
2021/10/22 10:06:09;;;;;;;8.20;2.57;;;10.20;99.90;;;;;;5033140;28;20440;-71
2021/10/22 10:08:40;;;;;;;10.43;3.10;;;10.20;99.90;;;;;;5018692;28;20414;-71
2021/10/22 10:11:08;;;;;;;3.50;2.20;;;10.30;99.90;;;;;;5034867;27;20437;-71
2021/10/22 10:13:34;;;;;;;23.90;4.07;;;10.20;99.90;;;;;;5033418;28;20421;-71
2021/10/22 10:16:06;;;;;;;11.23;2.37;;;10.30;99.90;;;;;;5018108;28;20519;-70
2021/10/22 10:18:41;;;;;;;5.10;2.80;;;10.40;99.90;;;;;;5023893;28;20445;-70
2021/10/22 10:21:11;;;;;;;5.57;2.33;;;10.50;99.90;;;;;;5037119;28;20414;-71
2021/10/22 10:23:42;;;;;;;4.43;1.90;;;10.60;99.90;;;;;;5029790;28;20457;-72
2021/10/22 10:26:30;;;;;;;8.37;2.57;;;10.70;99.90;;;;;;5031536;28;20787;-71
2021/10/22 10:29:00;;;;;;;4.40;2.73;;;10.70;99.90;;;;;;5030316;28;21291;-70
2021/10/22 10:31:39;;;;;;;7.80;2.90;;;10.60;99.90;;;;;;5031212;28;20416;-70
2021/10/22 10:34:28;;;;;;;8.80;3.03;;;10.50;99.90;;;;;;5033063;28;20437;-71
2021/10/22 10:36:55;;;;;;;15.10;6.00;;;10.60;99.90;;;;;;5026591;28;20438;-71
2021/10/22 10:39:45;;;;;;;7.80;3.47;;;10.70;99.90;;;;;;5021495;28;20414;-71
2021/10/22 10:42:34;;;;;;;7.87;3.00;;;10.70;99.90;;;;;;5026102;28;20550;-71
2021/10/22 10:45:02;;;;;;;8.03;2.30;;;10.80;99.90;;;;;;5027755;28;20425;-71
2021/10/22 10:47:30;;;;;;;5.33;2.47;;;10.80;99.90;;;;;;5041658;28;20417;-72
2021/10/22 10:49:58;;;;;;;4.30;2.67;;;10.80;99.90;;;;;;5032228;27;20457;-71
2021/10/22 10:52:42;;;;;;;7.97;2.47;;;10.90;99.90;;;;;;5033158;28;20984;-71
2021/10/22 10:55:30;;;;;;;10.40;3.20;;;10.90;99.90;;;;;;5043726;28;20410;-68
2021/10/22 10:58:09;;;;;;;6.27;2.10;;;11.00;99.90;;;;;;5016323;28;20426;-70
2021/10/22 11:00:45;;;;;;;6.93;2.50;;;11.00;99.90;;;;;;5016393;28;20413;-70
2021/10/22 11:03:16;;;;;;;8.90;3.00;;;11.00;99.90;;;;;;5027161;28;20753;-71
2021/10/22 11:08:18;;;;;;;7.37;2.70;;;11.10;99.90;;;;;;5034742;27;20764;-70
2021/10/22 11:11:08;;;;;;;5.20;2.60;;;11.20;99.90;;;;;;5033080;28;20410;-71
2021/10/22 11:13:49;;;;;;;4.67;2.30;;;11.30;99.90;;;;;;5030466;28;20500;-71
2021/10/22 11:16:21;;;;;;;7.30;2.80;;;11.30;99.90;;;;;;5032419;28;21048;-71
2021/10/22 11:18:53;;;;;;;3.60;2.17;;;11.30;99.90;;;;;;5032486;28;20437;-71
2021/10/22 11:21:23;;;;;;;8.47;3.07;;;11.30;99.90;;;;;;5031880;28;20909;-70
2021/10/22 11:23:49;;;;;;;5.80;2.80;;;11.30;99.90;;;;;;5031361;28;20461;-71
2021/10/22 11:26:19;;;;;;;4.83;2.30;;;11.30;99.90;;;;;;5045073;28;20428;-71
2021/10/22 11:28:52;;;;;;;12.10;3.23;;;11.30;99.90;;;;;;5033988;28;20424;-71
2021/10/22 11:31:40;;;;;;;8.83;2.80;;;11.40;99.90;;;;;;5043068;28;20415;-70
2021/10/22 11:34:12;;;;;;;19.37;4.13;;;11.50;99.90;;;;;;5035921;28;20414;-69
2021/10/22 11:36:38;;;;;;;20.53;4.50;;;11.40;99.90;;;;;;5015777;27;20491;-71
2021/10/22 11:39:19;;;;;;;22.67;4.97;;;11.40;99.90;;;;;;5036590;28;20410;-72
2021/10/22 11:41:59;;;;;;;5.80;2.47;;;11.40;99.90;;;;;;5057295;28;20404;-71
2021/10/22 11:44:24;;;;;;;7.50;2.90;;;11.40;99.90;;;;;;5071337;27;20497;-70
2021/10/22 11:46:50;;;;;;;6.07;3.17;;;11.30;99.90;;;;;;5044055;27;20955;-71
2021/10/22 11:49:27;;;;;;;6.90;2.80;;;11.20;99.90;;;;;;5024241;27;20548;-71
2021/10/22 11:51:57;;;;;;;9.87;2.60;;;11.20;99.90;;;;;;5032662;28;20474;-71
2021/10/22 11:54:33;;;;;;;24.23;3.87;;;11.20;99.90;;;;;;5033328;28;20402;-71
2021/10/22 11:57:02;;;;;;;17.90;3.13;;;11.20;99.90;;;;;;5034976;28;20445;-72
2021/10/22 11:59:28;;;;;;;10.73;3.00;;;11.20;99.90;;;;;;5035148;28;20536;-71
2021/10/22 12:02:03;;;;;;;13.70;3.30;;;11.20;99.90;;;;;;5031925;28;20429;-71
2021/10/22 12:04:29;;;;;;;3.70;2.50;;;11.20;99.90;;;;;;5032928;27;20247;-72
2021/10/22 12:07:10;;;;;;;6.93;3.90;;;11.20;99.90;;;;;;5027512;28;20562;-72
2021/10/22 12:09:38;;;;;;;8.13;3.07;;;11.20;99.90;;;;;;5024666;28;20182;-71
2021/10/22 12:12:08;;;;;;;6.77;2.53;;;11.20;99.90;;;;;;5033382;28;20420;-71
2021/10/22 12:14:38;;;;;;;9.83;3.13;;;11.20;99.90;;;;;;5031293;28;20410;-71
2021/10/22 12:17:08;;;;;;;6.80;2.90;;;11.20;99.90;;;;;;5029931;27;20449;-70
2021/10/22 12:19:34;;;;;;;12.63;3.63;;;11.20;99.90;;;;;;5023306;28;20789;-72
2021/10/22 12:22:00;;;;;;;9.80;4.13;;;11.20;99.90;;;;;;5031441;28;20463;-72
2021/10/22 12:24:41;;;;;;;7.83;3.03;;;11.20;99.90;;;;;;5014763;28;20945;-70
2021/10/22 12:27:07;;;;;;;11.27;3.40;;;11.10;99.90;;;;;;5030864;28;20433;-70
2021/10/22 12:30:06;;;;;;;9.73;3.53;;;11.10;99.90;;;;;;5017896;28;20422;-71
2021/10/22 12:32:38;;;;;;;18.13;4.87;;;11.10;99.90;;;;;;4973459;28;20428;-71
2021/10/22 12:35:25;;;;;;;5.27;2.10;;;11.10;99.90;;;;;;4989380;28;20756;-71
2021/10/22 12:38:04;;;;;;;11.50;4.60;;;11.10;99.90;;;;;;4979512;28;20427;-71
2021/10/22 12:40:41;;;;;;;10.23;3.10;;;11.10;99.90;;;;;;4987214;28;20420;-71
2021/10/22 12:43:10;;;;;;;15.13;4.63;;;11.00;99.90;;;;;;4975228;28;20523;-71
2021/10/22 12:45:51;;;;;;;9.33;4.60;;;11.00;99.90;;;;;;4969900;28;20456;-71
2021/10/22 12:48:26;;;;;;;7.40;2.77;;;11.00;99.90;;;;;;4985610;28;20464;-71
2021/10/22 12:50:52;;;;;;;5.73;2.77;;;11.00;99.90;;;;;;4969546;28;20431;-71
2021/10/22 12:53:28;;;;;;;5.70;3.50;;;11.00;99.90;;;;;;4981485;28;20428;-72
2021/10/22 12:56:07;;;;;;;4.37;2.87;;;10.90;99.90;;;;;;4975173;28;21064;-72
2021/10/22 12:58:33;;;;;;;6.30;2.20;;;11.00;99.90;;;;;;4973518;28;20776;-71
2021/10/22 13:01:13;;;;;;;8.33;3.30;;;11.00;99.90;;;;;;4982504;28;20409;-72
2021/10/22 13:03:42;;;;;;;6.73;3.33;;;11.00;99.90;;;;;;4971297;28;20270;-71
2021/10/22 13:09:03;;;;;;;12.00;3.53;;;11.00;99.90;;;;;;5026944;28;20423;-71